Time;durP1;ratioP1;P1;durP2;ratioP2;P2;SDS_P1;SDS_P2;PMS_P1;PMS_P2;Temp;Humidity;BMP_temperature;BMP_pressure;BME280_temperature;BME280_humidity;BME280_pressure;Samples;Min_cycle;Max_cycle;Signal;HPM_P1;HPM_P2
2022/06/13 00:00:50;;;;;;;122.82;112.35;;;;;;;18.91;100.00;100883.88;4997835;28;20046;-86
2022/06/13 00:03:17;;;;;;;106.03;96.43;;;;;;;18.82;100.00;100882.72;4995497;28;20058;-86
2022/06/13 00:05:44;;;;;;;133.57;121.43;;;;;;;18.64;100.00;100881.19;4999398;28;20070;-87
2022/06/13 00:08:11;;;;;;;147.10;134.95;;;;;;;18.86;100.00;100875.75;5000405;28;20061;-87
2022/06/13 00:10:42;;;;;;;136.55;124.93;;;;;;;18.96;100.00;100867.75;4979612;28;20054;-88
2022/06/13 00:16:33;;;;;;;125.80;115.03;;;;;;;18.99;100.00;100863.72;5000413;28;20061;-88
2022/06/13 00:19:20;;;;;;;119.97;109.70;;;;;;;19.01;100.00;100860.78;4992558;28;20050;-87
2022/06/13 00:21:48;;;;;;;118.95;108.20;;;;;;;18.86;100.00;100866.88;4994196;28;20042;-88
2022/06/13 00:24:16;;;;;;;109.80;99.70;;;;;;;18.87;100.00;100866.59;4998137;28;20050;-88
2022/06/13 00:27:05;;;;;;;111.28;101.65;;;;;;;18.88;100.00;100853.94;4999313;28;20062;-88
2022/06/13 00:29:49;;;;;;;127.43;116.47;;;;;;;18.94;100.00;100864.53;4998537;28;20055;-88
2022/06/13 00:32:19;;;;;;;124.75;114.03;;;;;;;18.94;100.00;100856.44;4995626;28;20125;-87
2022/06/13 00:34:52;;;;;;;134.93;123.47;;;;;;;18.88;100.00;100857.47;4998325;28;20050;-87
2022/06/13 00:37:23;;;;;;;147.77;135.77;;;;;;;18.81;100.00;100856.06;5000026;28;20105;-88
2022/06/13 00:39:55;;;;;;;132.00;120.85;;;;;;;18.91;100.00;100866.91;4997309;28;20046;-88
2022/06/13 00:42:24;;;;;;;134.73;123.30;;;;;;;18.73;100.00;100865.44;4997572;28;20050;-88
2022/06/13 00:45:09;;;;;;;151.75;139.18;;;;;;;18.91;100.00;100864.19;4997945;28;20050;-87
2022/06/13 00:47:46;;;;;;;129.07;117.88;;;;;;;18.99;100.00;100861.03;4999744;28;20047;-88
2022/06/13 00:50:18;;;;;;;142.95;131.15;;;;;;;19.07;100.00;100865.94;4997552;28;20057;-88
2022/06/13 00:53:18;;;;;;;156.07;143.93;;;;;;;18.97;100.00;100855.94;4978896;28;20051;-86
2022/06/13 00:55:56;;;;;;;126.20;114.93;;;;;;;18.79;100.00;100856.34;4990147;28;20046;-88
2022/06/13 00:58:30;;;;;;;133.50;122.28;;;;;;;19.38;100.00;100861.56;5006299;28;20069;-87
2022/06/13 01:00:59;;;;;;;132.20;120.80;;;;;;;19.10;100.00;100870.81;5002007;28;20051;-89
2022/06/13 01:03:50;;;;;;;125.45;114.30;;;;;;;19.02;100.00;100867.78;5002206;28;20061;-87
2022/06/13 01:06:36;;;;;;;125.75;114.55;;;;;;;18.77;100.00;100861.16;5002520;28;20050;-88
2022/06/13 01:11:16;;;;;;;139.45;127.43;;;;;;;18.79;100.00;100858.19;4995828;28;20542;-87
2022/06/13 01:12:44;;;;;;;139.02;127.18;;;;;;;19.09;100.00;100871.91;4988566;28;20121;-87
2022/06/13 01:15:29;;;;;;;115.43;105.05;;;;;;;19.16;100.00;100863.59;4983117;28;20051;-87
2022/06/13 01:18:20;;;;;;;123.70;112.88;;;;;;;19.05;100.00;100884.22;4993041;28;20051;-87
2022/06/13 01:21:10;;;;;;;127.57;116.93;;;;;;;18.88;100.00;100864.72;4998047;28;20116;-88
2022/06/13 01:24:28;;;;;;;124.25;113.22;;;;;;;18.58;100.00;100862.56;4985825;28;20053;-88
2022/06/13 01:27:33;;;;;;;125.85;114.00;;;;;;;19.08;100.00;100867.56;4981506;28;20108;-88
2022/06/13 01:30:36;;;;;;;122.05;111.03;;;;;;;18.98;100.00;100872.88;4980560;28;20055;-88
2022/06/13 01:33:20;;;;;;;108.28;98.53;;;;;;;19.11;100.00;100879.69;4995519;28;20054;-87
2022/06/13 01:36:01;;;;;;;130.80;119.70;;;;;;;18.66;100.00;100875.53;4985143;28;20475;-88
2022/06/13 01:38:48;;;;;;;132.93;121.43;;;;;;;18.94;100.00;100872.59;5001181;28;20077;-87
2022/06/13 01:41:29;;;;;;;118.22;107.80;;;;;;;18.96;100.00;100858.88;4996143;28;20314;-88
2022/06/13 01:44:08;;;;;;;126.57;116.05;;;;;;;18.62;100.00;100871.75;4998639;28;20058;-87
2022/06/13 01:46:59;;;;;;;137.05;126.65;;;;;;;18.90;100.00;100876.03;4992438;28;20039;-87
2022/06/13 01:49:36;;;;;;;151.27;138.55;;;;;;;19.04;100.00;100868.34;4999666;28;20376;-89
2022/06/13 01:52:19;;;;;;;137.77;125.93;;;;;;;18.82;100.00;100877.34;4994190;28;20054;-88
2022/06/13 01:54:53;;;;;;;133.25;121.97;;;;;;;18.61;100.00;100876.31;4994882;28;20042;-88
2022/06/13 01:57:29;;;;;;;133.23;122.50;;;;;;;18.84;100.00;100877.06;4985314;28;20055;-86
2022/06/13 02:05:56;;;;;;;150.73;138.70;;;;;;;18.81;100.00;100880.28;674956;23;21543;-88
2022/06/13 02:08:44;;;;;;;163.45;150.35;;;;;;;18.92;100.00;100879.31;4978266;28;20516;-88
2022/06/13 02:11:23;;;;;;;150.98;139.32;;;;;;;18.84;100.00;100882.44;4977547;28;20464;-89
2022/06/13 02:13:57;;;;;;;157.75;144.40;;;;;;;18.85;100.00;100879.53;4978358;28;20050;-87
2022/06/13 02:16:35;;;;;;;149.38;137.10;;;;;;;18.90;100.00;100884.13;4980695;28;20054;-88
2022/06/13 02:19:07;;;;;;;138.02;126.65;;;;;;;18.83;100.00;100889.72;4979162;28;20476;-87
2022/06/13 02:21:41;;;;;;;132.43;121.28;;;;;;;18.81;100.00;100891.84;4968505;28;20043;-88
2022/06/13 02:24:14;;;;;;;158.77;146.02;;;;;;;18.86;100.00;100893.78;4977078;28;20117;-89
2022/06/13 02:26:57;;;;;;;157.07;144.43;;;;;;;18.90;100.00;100894.88;4979155;28;20051;-90
2022/06/13 02:29:33;;;;;;;153.40;141.00;;;;;;;18.67;100.00;100896.00;4972673;28;20078;-87
2022/06/13 02:32:15;;;;;;;159.65;147.07;;;;;;;18.81;100.00;100896.44;4975750;28;20050;-88
2022/06/13 02:35:19;;;;;;;140.30;128.98;;;;;;;18.59;100.00;100899.16;4980125;28;20062;-88
2022/06/13 02:38:00;;;;;;;184.82;170.80;;;;;;;18.43;100.00;100899.00;4980783;28;20063;-88
2022/06/13 02:40:37;;;;;;;158.13;144.93;;;;;;;18.77;100.00;100902.31;4979531;28;20055;-88
2022/06/13 02:43:12;;;;;;;143.68;131.20;;;;;;;18.75;100.00;100903.63;4976534;28;20043;-88
2022/06/13 02:46:11;;;;;;;137.45;125.47;;;;;;;18.66;100.00;100899.75;4967308;28;20395;-88
2022/06/13 02:48:46;;;;;;;127.53;116.47;;;;;;;18.57;100.00;100901.28;4979807;28;20057;-88
2022/06/13 02:54:50;;;;;;;117.18;106.95;;;;;;;18.90;100.00;100905.66;4978576;28;20055;-88
2022/06/13 02:57:34;;;;;;;129.80;118.78;;;;;;;18.79;100.00;100907.47;4978179;28;20046;-87
2022/06/13 03:00:24;;;;;;;142.90;130.80;;;;;;;18.68;100.00;100909.19;4978154;28;20109;-87
2022/06/13 03:03:12;;;;;;;161.07;148.13;;;;;;;18.75;100.00;100922.47;4979719;28;20069;-88
2022/06/13 03:06:03;;;;;;;146.73;135.18;;;;;;;18.83;100.00;100915.81;4980731;28;20047;-88
2022/06/13 03:08:55;;;;;;;136.25;125.53;;;;;;;18.58;100.00;100919.03;4939921;29;20078;-88
2022/06/13 03:11:51;;;;;;;127.93;117.67;;;;;;;18.36;100.00;100922.59;4935178;29;20055;-88
2022/06/13 03:14:56;;;;;;;144.52;132.52;;;;;;;18.63;100.00;100914.53;4933505;29;20296;-89
2022/06/13 03:17:31;;;;;;;146.65;134.77;;;;;;;18.70;100.00;100922.41;4902910;29;20141;-89
2022/06/13 03:20:22;;;;;;;158.18;145.45;;;;;;;18.75;100.00;100930.53;4932349;29;20059;-88
2022/06/13 03:22:57;;;;;;;149.43;137.45;;;;;;;18.68;100.00;100922.66;4935664;29;20437;-88
2022/06/13 03:25:54;;;;;;;136.07;125.25;;;;;;;18.87;100.00;100925.00;4958764;28;20066;-88
2022/06/13 03:28:28;;;;;;;138.95;128.15;;;;;;;18.88;100.00;100926.59;4956507;28;20056;-87
2022/06/13 03:31:00;;;;;;;149.57;137.98;;;;;;;18.83;100.00;100924.69;4936924;29;20477;-87
2022/06/13 03:33:44;;;;;;;156.93;144.52;;;;;;;18.80;100.00;100922.53;4932808;29;20047;-87
2022/06/13 03:36:24;;;;;;;150.43;138.98;;;;;;;19.04;100.00;100920.31;4953265;28;20110;-88
2022/06/13 03:38:58;;;;;;;152.30;140.35;;;;;;;19.09;100.00;100914.13;4941462;29;20049;-88
2022/06/13 03:41:39;;;;;;;150.77;139.02;;;;;;;19.11;100.00;100917.38;4938941;29;20055;-87
2022/06/13 03:44:14;;;;;;;130.48;120.10;;;;;;;19.13;100.00;100926.84;4945070;29;21714;-87
2022/06/13 03:46:52;;;;;;;121.80;111.95;;;;;;;19.05;100.00;100921.09;4923698;29;20048;-87
2022/06/13 03:49:24;;;;;;;147.90;135.77;;;;;;;19.27;100.00;100911.03;4935218;29;20456;-87
2022/06/13 03:51:55;;;;;;;144.77;133.40;;;;;;;19.23;100.00;100921.50;4929313;28;20067;-86
2022/06/13 03:54:27;;;;;;;138.43;127.53;;;;;;;19.43;100.00;100922.75;4933282;29;20106;-87
2022/06/13 03:57:00;;;;;;;131.25;120.93;;;;;;;19.42;100.00;100924.59;4919036;29;20071;-88
2022/06/13 03:59:42;;;;;;;133.77;122.57;;;;;;;19.49;100.00;100931.66;4937399;29;20052;-87
2022/06/13 04:02:18;;;;;;;121.22;111.57;;;;;;;19.67;100.00;100923.19;4930157;29;20056;-88
2022/06/13 04:04:51;;;;;;;117.20;108.05;;;;;;;19.70;100.00;100925.34;4919222;29;20404;-89
2022/06/13 04:07:38;;;;;;;115.88;106.32;;;;;;;19.39;100.00;100927.00;4959110;28;20533;-88
2022/06/13 04:10:09;;;;;;;123.40;113.45;;;;;;;19.48;100.00;100930.03;4975405;28;20054;-86
2022/06/13 04:13:17;;;;;;;117.32;107.80;;;;;;;19.72;100.00;100935.84;4974689;28;20550;-89
2022/06/13 04:16:09;;;;;;;113.57;104.07;;;;;;;20.00;100.00;100921.16;4956162;28;20050;-88
2022/06/13 04:18:50;;;;;;;120.22;110.63;;;;;;;20.03;100.00;100931.41;4974121;28;20043;-85
2022/06/13 04:21:32;;;;;;;128.98;118.70;;;;;;;20.09;100.00;100936.59;4976175;28;20058;-88
2022/06/13 04:24:16;;;;;;;127.55;117.18;;;;;;;20.10;100.00;100932.81;4974709;28;20039;-86
2022/06/13 04:27:22;;;;;;;127.97;117.57;;;;;;;20.26;100.00;100938.25;4976038;28;20039;-87
2022/06/13 04:29:57;;;;;;;86.45;79.55;;;;;;;20.84;100.00;100941.63;4973061;28;20070;-89
2022/06/13 04:32:40;;;;;;;94.20;87.22;;;;;;;20.47;100.00;100934.53;4976406;28;20113;-86
2022/06/13 04:35:22;;;;;;;81.88;75.72;;;;;;;20.77;100.00;100941.88;4975195;28;20530;-87
2022/06/13 04:52:09;;;;;;;94.70;87.40;;;;;;;20.35;100.00;100958.22;5153604;27;20892;-87
2022/06/13 04:54:44;;;;;;;103.57;95.57;;;;;;;20.29;100.00;100960.09;5125524;27;20052;-87
2022/06/13 04:57:35;;;;;;;104.25;96.22;;;;;;;19.90;100.00;100965.84;5133717;28;20051;-87
2022/06/13 05:00:19;;;;;;;109.95;101.30;;;;;;;20.01;100.00;100971.31;5135893;28;20067;-85
2022/06/13 05:02:51;;;;;;;110.97;102.38;;;;;;;20.10;100.00;100969.75;5113015;28;20112;-87
2022/06/13 05:05:33;;;;;;;119.57;110.70;;;;;;;20.11;100.00;100974.84;5116787;28;20102;-86
2022/06/13 05:08:12;;;;;;;114.97;106.07;;;;;;;19.96;100.00;100976.69;5134601;27;20059;-86
2022/06/13 05:10:48;;;;;;;112.07;103.97;;;;;;;20.85;100.00;100980.22;5126992;28;20062;-87
2022/06/13 05:13:25;;;;;;;103.68;95.60;;;;;;;20.92;100.00;100978.88;5122235;28;20047;-86
2022/06/13 05:16:07;;;;;;;109.38;101.18;;;;;;;20.37;100.00;100974.97;5132762;28;20504;-87
2022/06/13 05:19:06;;;;;;;119.18;110.00;;;;;;;20.09;100.00;100974.31;5133541;28;20050;-86
2022/06/13 05:21:55;;;;;;;114.00;105.15;;;;;;;19.97;100.00;100973.72;5133795;28;20043;-86
2022/06/13 05:24:51;;;;;;;112.70;104.07;;;;;;;20.64;100.00;100974.00;5114818;28;20480;-88
2022/06/13 05:27:44;;;;;;;88.80;81.75;;;;;;;20.52;100.00;100969.66;5135226;28;20399;-88
2022/06/13 05:30:15;;;;;;;91.22;84.03;;;;;;;20.55;100.00;100969.13;5119995;28;20044;-87
2022/06/13 05:33:04;;;;;;;85.72;79.22;;;;;;;21.07;100.00;100971.88;5118654;28;20043;-86
2022/06/13 05:35:36;;;;;;;91.57;84.32;;;;;;;20.85;100.00;100981.06;5134304;28;20052;-88
2022/06/13 05:38:06;;;;;;;104.40;96.17;;;;;;;20.27;100.00;100977.59;5113851;28;20094;-89
2022/06/13 05:41:08;;;;;;;97.43;89.82;;;;;;;20.72;100.00;100966.16;5113309;28;20305;-88
2022/06/13 05:43:43;;;;;;;113.03;104.17;;;;;;;20.69;100.00;100955.09;5126561;28;20047;-86
2022/06/13 05:46:27;;;;;;;101.80;93.90;;;;;;;20.50;100.00;100955.56;5131896;28;20059;-88
2022/06/13 05:49:07;;;;;;;115.25;106.25;;;;;;;20.22;100.00;100964.13;5131770;28;20490;-86
2022/06/13 05:51:44;;;;;;;130.63;119.97;;;;;;;20.73;100.00;100961.59;5125682;27;20120;-88
2022/06/13 05:54:16;;;;;;;125.40;115.88;;;;;;;20.87;100.00;100962.69;5118124;28;20043;-87
2022/06/13 06:00:20;;;;;;;109.65;101.20;;;;;;;21.20;100.00;100960.53;5097625;28;20108;-88
2022/06/13 06:02:47;;;;;;;100.95;92.95;;;;;;;21.25;100.00;100953.25;5097284;28;20105;-87
2022/06/13 06:05:39;;;;;;;80.07;74.03;;;;;;;21.25;100.00;100955.94;5116391;28;20048;-86
2022/06/13 06:08:07;;;;;;;82.68;76.28;;;;;;;21.48;100.00;100960.00;5113343;28;20039;-88
2022/06/13 06:10:52;;;;;;;62.63;57.63;;;;;;;22.04;100.00;100955.53;5118206;28;20047;-87
2022/06/13 06:13:20;;;;;;;84.90;78.75;;;;;;;21.66;100.00;100960.50;5118938;28;20048;-86
2022/06/13 06:15:50;;;;;;;101.18;94.00;;;;;;;20.88;100.00;100955.38;5117575;28;20039;-85
2022/06/13 06:18:26;;;;;;;115.88;107.53;;;;;;;20.84;100.00;100955.13;5117559;27;20043;-86
2022/06/13 06:21:05;;;;;;;110.00;102.20;;;;;;;21.27;100.00;100956.47;5100540;28;20051;-88
2022/06/13 06:23:33;;;;;;;102.70;94.78;;;;;;;21.50;100.00;100959.72;5109771;28;20059;-86
2022/06/13 06:26:17;;;;;;;91.50;84.75;;;;;;;21.87;100.00;100958.53;5118169;28;20051;-86
2022/06/13 06:29:03;;;;;;;115.30;106.53;;;;;;;21.31;100.00;100956.75;5114085;28;20081;-86
2022/06/13 06:31:39;;;;;;;98.15;90.75;;;;;;;21.31;100.00;100955.94;5107560;28;20044;-88
2022/06/13 06:34:16;;;;;;;124.00;114.47;;;;;;;20.50;100.00;100966.38;5107740;28;20062;-86
2022/06/13 06:37:10;;;;;;;115.15;106.30;;;;;;;21.43;100.00;100962.72;5118396;28;20051;-87
2022/06/13 06:39:49;;;;;;;109.43;101.15;;;;;;;21.12;100.00;100959.19;5118168;28;20058;-87
2022/06/13 06:42:23;;;;;;;106.70;98.30;;;;;;;21.23;100.00;100962.69;5115833;28;20522;-86
2022/06/13 06:44:53;;;;;;;107.22;98.47;;;;;;;21.30;100.00;100954.31;5115156;28;20369;-85
2022/06/13 06:47:31;;;;;;;126.03;116.30;;;;;;;21.56;100.00;100957.81;5099438;28;20434;-87
2022/06/13 06:49:58;;;;;;;108.63;99.78;;;;;;;20.87;100.00;100959.16;5098326;28;20058;-85
2022/06/13 06:52:46;;;;;;;91.50;84.38;;;;;;;21.73;100.00;100956.44;5113341;28;20104;-87
2022/06/13 07:00:54;;;;;;;93.85;86.43;;;;;;;21.31;100.00;100956.75;5101455;28;20088;-86
2022/06/13 07:03:33;;;;;;;113.68;104.80;;;;;;;21.24;100.00;100954.31;5094577;28;20044;-86
2022/06/13 07:06:01;;;;;;;100.10;92.07;;;;;;;21.28;100.00;100957.28;5101285;28;20043;-86
2022/06/13 07:08:33;;;;;;;103.78;95.63;;;;;;;21.67;100.00;100951.31;5117414;28;20047;-86
2022/06/13 07:14:31;;;;;;;95.38;87.97;;;;;;;21.72;100.00;100957.53;5107337;28;20051;-86
2022/06/13 07:17:17;;;;;;;93.88;86.57;;;;;;;22.12;100.00;100960.38;5116261;28;20054;-87
2022/06/13 07:20:01;;;;;;;98.32;89.80;;;;;;;22.01;100.00;100961.47;5116364;28;20043;-86
2022/06/13 07:22:35;;;;;;;105.20;96.65;;;;;;;21.23;100.00;100965.38;5102855;28;20063;-87
2022/06/13 07:25:08;;;;;;;122.30;113.15;;;;;;;21.45;100.00;100959.72;5103711;28;20058;-86
2022/06/13 07:28:03;;;;;;;104.55;96.68;;;;;;;21.83;100.00;100960.19;5116135;28;20051;-86
2022/06/13 07:30:41;;;;;;;111.18;103.13;;;;;;;21.80;100.00;100961.53;5099405;28;20059;-86
2022/06/13 07:33:30;;;;;;;92.28;85.07;;;;;;;21.76;100.00;100960.47;5117759;28;20054;-85
2022/06/13 07:36:00;;;;;;;120.93;112.00;;;;;;;22.27;100.00;100960.31;5101911;28;20048;-85
2022/06/13 07:38:35;;;;;;;109.53;101.50;;;;;;;22.36;100.00;100955.09;5118956;28;20077;-86
2022/06/13 07:41:14;;;;;;;93.13;86.18;;;;;;;21.82;100.00;100959.38;5115892;28;20054;-85
2022/06/13 07:43:44;;;;;;;98.10;90.90;;;;;;;22.24;100.00;100949.22;5109304;28;20442;-85
2022/06/13 07:46:13;;;;;;;84.18;77.70;;;;;;;22.08;100.00;100957.38;5102699;28;20051;-87
2022/06/13 07:48:55;;;;;;;97.97;90.78;;;;;;;22.15;100.00;100960.59;5102144;28;20067;-86
2022/06/13 07:51:24;;;;;;;91.10;84.00;;;;;;;21.78;100.00;100960.19;5108877;28;20058;-86
2022/06/13 07:53:53;;;;;;;95.57;88.28;;;;;;;21.84;100.00;100962.59;5115449;28;20056;-86
2022/06/13 07:56:24;;;;;;;103.13;95.82;;;;;;;21.96;100.00;100963.09;5117103;28;20067;-87
2022/06/13 07:59:14;;;;;;;99.22;91.82;;;;;;;22.55;100.00;100955.28;5106532;28;20059;-86
2022/06/13 08:02:19;;;;;;;95.65;88.75;;;;;;;22.51;100.00;100951.50;5098664;28;20040;-86
2022/06/13 08:04:59;;;;;;;96.03;88.72;;;;;;;22.88;100.00;100950.19;5114315;28;20044;-85
2022/06/13 08:07:29;;;;;;;97.10;89.70;;;;;;;22.95;100.00;100940.69;5115169;28;20075;-86
2022/06/13 08:09:57;;;;;;;99.55;92.15;;;;;;;23.22;100.00;100944.78;5106903;28;20058;-85
2022/06/13 08:12:32;;;;;;;78.38;72.63;;;;;;;23.14;100.00;100942.69;5098281;28;20052;-85
2022/06/13 08:14:59;;;;;;;89.30;82.15;;;;;;;22.85;100.00;100943.44;5095800;28;20430;-84
2022/06/13 08:17:26;;;;;;;83.82;77.30;;;;;;;23.45;100.00;100949.44;5116159;28;20077;-84
2022/06/13 08:19:54;;;;;;;83.28;76.70;;;;;;;23.64;100.00;100941.38;5113075;28;20047;-83
2022/06/13 08:22:24;;;;;;;93.10;85.72;;;;;;;23.70;100.00;100937.56;5115320;28;20043;-86
2022/06/13 08:24:52;;;;;;;86.95;79.97;;;;;;;24.01;100.00;100939.91;5105500;28;20464;-85
2022/06/13 08:27:31;;;;;;;76.95;71.15;;;;;;;23.74;100.00;100938.56;5106434;28;20043;-86
2022/06/13 08:29:58;;;;;;;65.53;60.10;;;;;;;23.50;100.00;100943.16;5100389;28;20044;-86
2022/06/13 08:32:25;;;;;;;55.72;50.70;;;;;;;23.25;100.00;100936.91;5103600;28;20113;-85
2022/06/13 08:34:54;;;;;;;59.05;54.15;;;;;;;23.56;100.00;100939.28;5114815;28;20051;-85
2022/06/13 08:37:21;;;;;;;72.70;67.20;;;;;;;23.83;100.00;100938.75;5112805;28;20127;-86
2022/06/13 08:39:49;;;;;;;74.10;68.28;;;;;;;23.98;100.00;100940.47;5113885;28;20105;-86
2022/06/13 08:42:31;;;;;;;62.10;57.15;;;;;;;23.66;100.00;100939.19;5118589;28;20127;-86
2022/06/13 08:45:03;;;;;;;66.57;61.40;;;;;;;24.03;100.00;100931.47;5117706;28;20063;-84
2022/06/13 08:47:44;;;;;;;96.38;89.53;;;;;;;23.90;100.00;100932.97;5115580;28;20056;-85
2022/06/13 08:50:33;;;;;;;95.32;88.60;;;;;;;24.41;100.00;100932.31;5102093;28;20083;-86
2022/06/13 08:53:07;;;;;;;79.13;73.10;;;;;;;24.27;100.00;100924.09;5105766;28;20476;-84
2022/06/13 08:56:00;;;;;;;89.05;82.43;;;;;;;24.38;100.00;100927.47;5100123;28;20121;-84
2022/06/13 08:58:34;;;;;;;59.03;54.63;;;;;;;24.37;100.00;100928.56;5102944;28;20479;-83
2022/06/13 09:01:31;;;;;;;51.63;47.83;;;;;;;24.41;100.00;100926.88;5099264;28;20128;-85
2022/06/13 09:04:07;;;;;;;91.80;85.15;;;;;;;24.67;100.00;100928.16;5102666;28;20081;-84
2022/06/13 09:06:40;;;;;;;95.50;88.97;;;;;;;25.18;100.00;100928.44;5116709;28;20472;-83
2022/06/13 09:09:25;;;;;;;103.55;96.68;;;;;;;25.29;100.00;100927.13;5117664;28;20048;-84
2022/06/13 09:12:03;;;;;;;103.60;96.00;;;;;;;25.38;100.00;100933.50;5099463;28;20055;-85
2022/06/13 09:14:35;;;;;;;61.80;56.97;;;;;;;25.36;100.00;100930.28;5111978;28;20043;-87
2022/06/13 09:17:12;;;;;;;45.95;42.55;;;;;;;23.96;100.00;100915.53;5112337;28;20055;-84
2022/06/13 09:19:50;;;;;;;60.55;56.20;;;;;;;24.40;100.00;100926.06;5117295;28;20040;-87
2022/06/13 09:22:27;;;;;;;75.63;69.95;;;;;;;25.45;100.00;100925.78;5117140;28;20395;-86
2022/06/13 09:25:07;;;;;;;44.47;41.25;;;;;;;24.61;100.00;100909.50;5113418;28;20047;-83
2022/06/13 09:27:57;;;;;;;57.28;53.28;;;;;;;24.52;100.00;100911.28;5100505;28;20059;-87
2022/06/13 09:30:37;;;;;;;50.83;47.22;;;;;;;24.89;100.00;100910.41;5119354;28;20055;-87
2022/06/13 09:33:25;;;;;;;52.45;48.42;;;;;;;24.66;100.00;100915.69;5116076;28;20088;-86
2022/06/13 09:36:12;;;;;;;103.47;96.15;;;;;;;25.87;100.00;100913.00;5097852;28;20052;-85
2022/06/13 09:38:47;;;;;;;77.35;71.30;;;;;;;25.67;100.00;100913.38;5116645;28;20128;-84
2022/06/13 09:41:32;;;;;;;58.78;54.08;;;;;;;25.45;100.00;100905.94;5118789;28;20495;-82
2022/06/13 09:44:14;;;;;;;44.55;41.40;;;;;;;25.11;100.00;100907.03;5115769;28;20044;-81
2022/06/13 09:46:55;;;;;;;58.00;53.67;;;;;;;25.93;100.00;100903.63;5120575;28;20381;-84
2022/06/13 09:49:36;;;;;;;49.20;45.80;;;;;;;25.77;100.00;100905.81;5119166;28;20074;-85
2022/06/13 09:52:15;;;;;;;40.13;37.53;;;;;;;25.65;100.00;100897.34;5119278;28;20109;-84
2022/06/13 09:54:59;;;;;;;40.85;38.05;;;;;;;25.42;100.00;100895.63;5120601;28;20047;-83
2022/06/13 09:57:38;;;;;;;51.45;47.35;;;;;;;26.21;100.00;100898.13;5119792;28;20044;-82
2022/06/13 10:00:14;;;;;;;38.03;35.55;;;;;;;25.49;100.00;100891.41;5110726;28;20071;-83
2022/06/13 10:02:56;;;;;;;48.97;45.40;;;;;;;26.20;100.00;100894.59;5101129;28;20055;-83
2022/06/13 10:05:36;;;;;;;43.93;41.00;;;;;;;25.94;100.00;100890.81;5113830;28;20044;-82
2022/06/13 10:08:34;;;;;;;48.53;44.95;;;;;;;26.55;100.00;100883.22;5112469;28;20051;-85
2022/06/13 10:11:06;;;;;;;36.92;34.25;;;;;;;26.16;100.00;100882.69;5110859;28;20052;-84
2022/06/13 10:14:05;;;;;;;39.05;36.25;;;;;;;26.64;100.00;100893.03;5098568;28;20048;-84
2022/06/13 10:16:43;;;;;;;39.90;36.85;;;;;;;26.30;100.00;100881.88;5111100;28;20055;-84
2022/06/13 10:19:21;;;;;;;50.22;46.53;;;;;;;27.21;100.00;100883.47;5109657;28;20044;-84
2022/06/13 10:22:08;;;;;;;52.92;48.90;;;;;;;27.48;100.00;100875.09;5100805;28;20040;-84
2022/06/13 10:24:58;;;;;;;51.33;47.50;;;;;;;26.83;100.00;100876.50;5109062;28;20055;-85
2022/06/13 10:27:48;;;;;;;40.83;37.88;;;;;;;26.39;100.00;100877.31;5114305;28;20503;-83
2022/06/13 10:30:20;;;;;;;43.08;39.97;;;;;;;26.59;100.00;100878.75;5112016;28;20047;-83
2022/06/13 10:33:36;;;;;;;46.88;43.13;;;;;;;26.35;100.00;100874.38;5101603;28;20040;-84
2022/06/13 10:36:19;;;;;;;51.00;47.25;;;;;;;26.40;100.00;100871.53;5030995;28;20141;-84
2022/06/13 10:38:56;;;;;;;49.40;45.33;;;;;;;27.12;100.00;100865.13;5016063;28;20109;-82
2022/06/13 10:41:26;;;;;;;41.58;38.50;;;;;;;26.85;100.00;100860.66;5089107;28;20053;-84
2022/06/13 10:43:55;;;;;;;48.45;44.63;;;;;;;27.69;100.00;100863.59;5104143;28;20113;-84
2022/06/13 10:46:33;;;;;;;44.92;41.20;;;;;;;27.27;100.00;100854.97;5109310;28;20048;-83
2022/06/13 10:49:08;;;;;;;50.30;46.22;;;;;;;27.64;100.00;100859.88;5107099;28;20043;-83
2022/06/13 10:51:43;;;;;;;42.05;39.05;;;;;;;27.83;100.00;100853.34;5117297;28;20044;-84
2022/06/13 10:54:14;;;;;;;42.05;38.88;;;;;;;27.75;100.00;100851.41;5118011;28;20040;-82
2022/06/13 10:56:46;;;;;;;41.95;38.85;;;;;;;27.20;100.00;100846.41;5118488;28;20044;-84
2022/06/13 10:59:28;;;;;;;;;;;;;;;27.67;100.00;100838.53;5116949;28;20043;-85
2022/06/13 11:02:00;;;;;;;39.85;36.60;;;;;;;26.91;100.00;100843.06;5115933;28;19938;-85
2022/06/13 11:04:34;;;;;;;43.10;38.63;;;;;;;27.21;100.00;100837.94;5111068;28;20113;-84
2022/06/13 11:07:10;;;;;;;42.88;39.67;;;;;;;27.80;100.00;100843.06;5103924;28;20373;-85
2022/06/13 11:09:39;;;;;;;44.80;41.60;;;;;;;27.91;100.00;100836.19;5096142;28;20058;-84
2022/06/13 11:12:23;;;;;;;40.78;37.88;;;;;;;27.15;100.00;100823.63;5098774;28;20063;-86
2022/06/13 11:24:36;;;;;;;39.50;36.80;;;;;;;27.39;100.00;100808.81;5116948;28;20066;-86
2022/06/13 11:30:19;;;;;;;42.85;39.60;;;;;;;28.14;100.00;100801.38;5116974;28;20043;-85
2022/06/13 11:33:36;;;;;;;38.30;35.55;;;;;;;27.53;100.00;100804.00;5107651;28;20120;-88
2022/06/13 11:36:21;;;;;;;42.95;39.63;;;;;;;27.81;100.00;100798.31;5117185;28;20051;-86
2022/06/13 11:38:58;;;;;;;43.10;40.10;;;;;;;27.73;100.00;100788.97;5115754;28;20055;-85
2022/06/13 11:41:35;;;;;;;36.42;33.83;;;;;;;27.45;100.00;100790.38;5116899;28;20101;-86
2022/06/13 11:44:10;;;;;;;34.95;32.55;;;;;;;27.64;100.00;100799.06;5117027;28;20047;-86
2022/06/13 11:46:46;;;;;;;35.85;33.45;;;;;;;27.76;100.00;100784.78;5113837;28;20051;-84
2022/06/13 11:49:29;;;;;;;31.52;29.42;;;;;;;27.45;100.00;100788.44;5101829;28;20052;-84
2022/06/13 11:55:25;;;;;;;36.45;34.13;;;;;;;27.66;100.00;100779.63;5096039;28;20073;-84
2022/06/13 11:57:56;;;;;;;33.83;31.33;;;;;;;27.84;100.00;100781.31;5105002;28;20035;-85
2022/06/13 12:00:32;;;;;;;36.10;33.80;;;;;;;27.70;100.00;100778.69;5111550;28;20047;-86
2022/06/13 12:03:24;;;;;;;34.88;32.53;;;;;;;27.52;100.00;100777.84;5104377;28;20079;-85
2022/06/13 12:05:58;;;;;;;43.33;40.28;;;;;;;27.98;100.00;100772.94;5114616;28;20082;-85
2022/06/13 12:08:29;;;;;;;37.33;34.72;;;;;;;26.75;100.00;100773.75;5104187;28;20040;-85
2022/06/13 12:11:22;;;;;;;39.22;36.72;;;;;;;26.87;100.00;100770.41;5111014;28;20050;-84
2022/06/13 12:13:49;;;;;;;;;;;;;;;26.99;100.00;100772.53;5107537;28;20044;-82
2022/06/13 12:16:28;;;;;;;36.05;33.63;;;;;;;26.59;100.00;100773.31;5110844;28;19950;-85
2022/06/13 12:19:07;;;;;;;43.92;40.92;;;;;;;27.74;100.00;100770.66;5109148;28;20047;-85
2022/06/13 12:21:39;;;;;;;32.05;29.98;;;;;;;27.90;100.00;100762.81;5112852;28;20044;-85
2022/06/13 12:24:14;;;;;;;;;;;;;;;27.73;100.00;100758.94;5108241;28;20454;-86
2022/06/13 12:26:46;;;;;;;35.45;32.95;;;;;;;28.44;100.00;100761.34;5111550;28;19920;-88
2022/06/13 12:29:33;;;;;;;35.67;32.60;;;;;;;28.62;100.00;100759.34;5117300;28;20112;-87
2022/06/13 12:32:10;;;;;;;34.83;32.33;;;;;;;28.51;100.00;100752.66;5098447;28;20048;-83
2022/06/13 12:34:51;;;;;;;31.98;29.88;;;;;;;28.16;100.00;100739.03;5098588;28;20048;-83
2022/06/13 12:37:32;;;;;;;36.45;34.05;;;;;;;27.44;100.00;100735.00;5115786;28;20048;-85
2022/06/13 12:40:15;;;;;;;40.50;37.20;;;;;;;28.26;100.00;100729.69;5103562;28;20043;-85
2022/06/13 12:42:55;;;;;;;35.13;32.83;;;;;;;27.99;100.00;100728.97;5112753;28;20044;-83
2022/06/13 12:45:50;;;;;;;33.72;31.33;;;;;;;27.60;100.00;100724.44;5117247;28;20043;-86